• Join FlightAware (Why Join?)
  • Login
  • US Flag 
08:03PM EDT


 

Airport Tracker/Info


-or-


 

Live Flight TrackerFlight Track Log ✈ HPN8 ✈ 02-May-2013 ✈ KHPN - KBTP

Flight Track Log - Related Links

Times and Time Zones

All times are in EDT time to prevent confusion due to time zone crossing. See the HPN8 flight status page for this flight to view local times or setup timezone preferences in your user account.

Time Position Orientation Groundspeed Altitude Reporting Facility
EDT Latitude Longitude Course Direction KTS MPH feet Rate Location/Type
10:22AM 41.0333 -73.7333 259° West 203 234 2,700  Level New York TRACON
10:23AM 41.0500 -73.8000 288° West 214 246 4,800 2,220 Climbing New York TRACON
10:24AM 41.0333 -73.8667 252° West 221 254 7,200 2,520 Climbing New York TRACON
10:25AM 41.0167 -73.9500 255° West 207 238 10,000 2,220 Climbing New York TRACON
10:26AM 41.0000 -74.0333 255° West 222 255 12,000 1,800 Climbing New York TRACON
10:27AM 40.9488 -74.3332 259° West  Level FlightAware Approximate
10:27AM 40.9833 -74.1167 255° West 224 258 13,900  Level New York TRACON
10:28AM 40.9667 -74.2000 255° West 247 284 15,000 840 Climbing New York TRACON
10:29AM 40.9500 -74.3000 258° West 294 338 15,600 480 Climbing New York TRACON
10:30AM 40.9333 -74.4167 259° West 310 357 16,000 240 Climbing New York TRACON
10:30AM 40.9233 -74.4372 237° Southwest 320 368 16,000  Level New York Center
10:31AM 40.9236 -74.5664 270° West 330 380 16,000  Level New York Center
10:32AM 40.9283 -74.6764 273° West 354 407 16,000  Level New York Center
10:33AM 40.9342 -74.8114 273° West 346 398 16,000  Level New York Center
10:34AM 40.8950 -74.9217 245° Southwest 335 386 16,000  Level New York Center
10:35AM 40.8472 -75.0311 240° Southwest 345 397 16,000 480 Level New York Center
10:36AM 40.8064 -75.1219 239° Southwest 333 383 17,000 480 Climbing New York Center
10:37AM 40.7869 -75.2522 259° West 323 372 17,000  Level New York Center
10:38AM 40.7639 -75.3658 255° West 328 377 17,000 540 Level New York Center
10:39AM 40.7369 -75.4653 250° West 323 372 18,200 1,320 Climbing New York Center
10:40AM 40.6975 -75.5694 243° Southwest 310 357 19,700 840 Climbing New York Center
10:41AM 40.6603 -75.6653 243° Southwest 298 343 20,000 120 Climbing New York Center
10:42AM 40.6222 -75.7719 245° Southwest 298 343 20,000 900 Level New York Center
10:43AM 40.5847 -75.8703 243° Southwest 309 356 21,800 1,800 Climbing New York Center
10:44AM 40.5472 -75.9658 243° Southwest 303 349 23,700 1,620 Climbing New York Center
10:45AM 40.5122 -76.0533 242° Southwest 288 331 25,200 1,140 Climbing New York Center
10:46AM 40.4833 -76.1356 245° Southwest 282 325 26,000 360 Climbing New York Center
10:47AM 40.4433 -76.2389 243° Southwest 292 336 26,000  Level New York Center
10:48AM 40.3958 -76.3633 243° Southwest 343 395 26,000  Level New York Center
10:49AM 40.3528 -76.4797 244° Southwest 358 412 26,000  Level New York Center
10:50AM 40.3103 -76.5822 241° Southwest 358 412 26,000  Level New York Center
10:51AM 40.2689 -76.7014 246° West 358 412 26,000  Level New York Center
10:52AM 40.2853 -76.8278 280° West 340 391 26,000  Level New York Center
10:53AM 40.3133 -76.9719 284° West 360 414 26,000  Level New York Center
10:54AM 40.3322 -77.0881 282° West 367 422 26,000  Level New York Center
10:55AM 40.3539 -77.2236 282° West 362 417 26,000  Level New York Center
10:56AM 40.3747 -77.3400 283° West 362 417 26,000 -240 Level New York Center
10:59AM 40.4231 -77.6375 282° West 370 426 25,300 -540 Descending Cleveland Center
11:00AM 40.4453 -77.7703 282° West 370 426 24,400 -660 Descending Cleveland Center
11:01AM 40.4672 -77.9058 282° West 375 432 24,000 -420 Descending Cleveland Center
11:02AM 40.4892 -78.0386 282° West 375 432 23,600 -900 Descending Cleveland Center
11:03AM 40.5108 -78.1772 282° West 375 432 22,200 -1,440 Descending Cleveland Center
11:04AM 40.5325 -78.3183 281° West 387 445 20,800 -1,500 Descending Cleveland Center
11:05AM 40.5539 -78.4542 282° West 387 445 19,200 -1,320 Descending Cleveland Center
11:06AM 40.5753 -78.5931 282° West 387 445 18,200 -1,320 Descending Cleveland Center
11:07AM 40.5961 -78.7264 282° West 387 445 16,600 -1,740 Descending Cleveland Center
11:08AM 40.6169 -78.8572 282° West 387 445 14,800 -1,560 Descending Cleveland Center
11:09AM 40.6333 -78.9689 281° West 373 429 13,500 -1,440 Descending Cleveland Center
11:10AM 40.6517 -79.0942 281° West 359 413 12,000 -1,800 Descending Cleveland Center
11:10AM 40.6608 -79.1625 280° West 341 392 11,000 -1,620 Descending Cleveland Center
11:11AM 40.6697 -79.2117 283° West 344 396 10,400 -1,500 Descending Cleveland Center
11:11AM 40.6789 -79.2744 281° West 311 358 9,500 -1,500 Descending Cleveland Center
11:12AM 40.6878 -79.3208 284° West 329 379 8,900 -1,380 Descending Cleveland Center
11:13AM 40.7014 -79.4272 280° West 312 359 7,400 -1,560 Descending Cleveland Center
11:13AM 40.7169 -79.5258 282° West 293 337 5,900 -1,200 Descending Cleveland Center
11:15AM 40.7303 -79.6242 280° West 287 330 5,000 -1,020 Descending Cleveland Center
11:15AM 40.7436 -79.7281 280° West 269 310 3,900 -1,020 Descending Cleveland Center
11:17AM 40.7586 -79.8047 285° West 248 285 3,000 -600 Descending Cleveland Center
11:18AM 40.7717 -79.8814 283° West 230 265 2,800 -180 Descending Cleveland Center
11:19AM 40.7847 -79.9525 284° West 214 246 2,700 -120 Descending Cleveland Center
11:20AM 40.7766 -79.9511 270° West  Level Estimated
11:27AM 40.7766 -79.9511 270° West  Level Estimated
11:28AM 40.7766 -79.9511 270° West  Level Estimated
11:29AM 40.7766 -79.9511 270° West  Level Estimated
11:30AM 40.7766 -79.9511 270° West  Level Estimated